Time;durP1;ratioP1;P1;durP2;ratioP2;P2;SDS_P1;SDS_P2;PMS_P1;PMS_P2;Temp;Humidity;BMP_temperature;BMP_pressure;BME280_temperature;BME280_humidity;BME280_pressure;Samples;Min_cycle;Max_cycle;Signal;HPM_P1;HPM_P2
2023/10/11 00:01:17;;;;;;;51.67;21.10;;;;;;;;;;5074390;28;20424;-59
2023/10/11 00:05:53;;;;;;;57.10;21.02;;;;;;;;;;5079616;28;20053;-58
2023/10/11 00:08:19;;;;;;;49.60;20.92;;;;;;;;;;5080248;28;20058;-58
2023/10/11 00:11:18;;;;;;;60.10;22.70;;;;;;;;;;5067031;28;20045;-58
2023/10/11 00:13:46;;;;;;;54.35;20.65;;;;;;;;;;5068062;28;20492;-59
2023/10/11 00:16:16;;;;;;;52.08;21.00;;;;;;;;;;5072177;28;20044;-59
2023/10/11 00:18:44;;;;;;;55.88;20.85;;;;;;;;;;5069812;28;20059;-58
2023/10/11 00:21:11;;;;;;;57.00;19.30;;;;;;;;;;5077762;28;20040;-58
2023/10/11 00:23:42;;;;;;;49.97;18.92;;;;;;;;;;5068910;28;20067;-58
2023/10/11 00:26:08;;;;;;;54.47;19.45;;;;;;;;;;5069257;28;20349;-59
2023/10/11 00:28:37;;;;;;;49.03;18.77;;;;;;;;;;5080615;28;20056;-58
2023/10/11 00:31:04;;;;;;;52.70;19.35;;;;;;;;;;5068985;28;20059;-59
2023/10/11 00:33:32;;;;;;;42.88;19.48;;;;;;;;;;5069451;28;20036;-58
2023/10/11 00:36:01;;;;;;;50.28;18.55;;;;;;;;;;5072059;28;20051;-58
2023/10/11 00:38:27;;;;;;;43.85;16.77;;;;;;;;;;5078575;28;20036;-59
2023/10/11 00:41:15;;;;;;;49.22;18.98;;;;;;;;;;5071574;28;20040;-58
2023/10/11 00:43:52;;;;;;;45.55;17.73;;;;;;;;;;5078934;28;20484;-59
2023/10/11 00:46:19;;;;;;;56.38;19.02;;;;;;;;;;5081284;28;20036;-59
2023/10/11 00:48:53;;;;;;;46.28;17.88;;;;;;;;;;5073732;28;20052;-58
2023/10/11 00:51:25;;;;;;;47.53;17.90;;;;;;;;;;5070196;28;20063;-58
2023/10/11 00:53:52;;;;;;;44.83;18.60;;;;;;;;;;5066245;28;20032;-58
2023/10/11 00:56:20;;;;;;;43.53;17.23;;;;;;;;;;5078306;28;20043;-59
2023/10/11 00:58:47;;;;;;;45.95;17.38;;;;;;;;;;5071474;28;20127;-58
2023/10/11 01:01:14;;;;;;;38.97;16.30;;;;;;;;;;5065408;28;20052;-59
2023/10/11 01:03:41;;;;;;;47.42;16.33;;;;;;;;;;5069559;28;20045;-58
2023/10/11 01:06:10;;;;;;;48.63;17.63;;;;;;;;;;5067442;28;20083;-58
2023/10/11 01:08:40;;;;;;;46.88;16.85;;;;;;;;;;5073178;28;20040;-59
2023/10/11 01:11:13;;;;;;;48.45;16.75;;;;;;;;;;5079200;28;20040;-59
2023/10/11 01:13:40;;;;;;;;;;;;;;;;;;5077783;28;20076;-59
2023/10/11 01:16:15;;;;;;;39.47;14.98;;;;;;;;;;5065650;28;19943;-59
2023/10/11 01:18:42;;;;;;;35.70;15.43;;;;;;;;;;5074721;28;20442;-58
2023/10/11 01:21:09;;;;;;;46.50;16.25;;;;;;;;;;5081862;28;20086;-58
2023/10/11 01:23:35;;;;;;;44.58;15.48;;;;;;;;;;5077030;28;20040;-58
2023/10/11 01:26:08;;;;;;;45.22;16.17;;;;;;;;;;5076622;28;20048;-59
2023/10/11 01:28:38;;;;;;;45.47;14.07;;;;;;;;;;5073527;28;20098;-58
2023/10/11 01:31:08;;;;;;;48.30;16.00;;;;;;;;;;5081853;28;20302;-58
2023/10/11 01:33:44;;;;;;;43.40;15.68;;;;;;;;;;5069266;28;20044;-57
2023/10/11 01:36:12;;;;;;;48.38;16.45;;;;;;;;;;5067470;28;20033;-59
2023/10/11 01:38:46;;;;;;;37.47;14.80;;;;;;;;;;5077794;28;20127;-58
2023/10/11 01:41:14;;;;;;;35.50;14.35;;;;;;;;;;5067950;28;20045;-58
2023/10/11 01:43:40;;;;;;;35.75;16.00;;;;;;;;;;5083523;28;20050;-58
2023/10/11 01:46:06;;;;;;;44.40;15.48;;;;;;;;;;5076569;28;20378;-58
2023/10/11 01:48:32;;;;;;;42.47;15.52;;;;;;;;;;5086237;28;20094;-59
2023/10/11 01:51:05;;;;;;;42.33;15.25;;;;;;;;;;5082670;28;20028;-59
2023/10/11 01:53:31;;;;;;;46.33;15.05;;;;;;;;;;5072768;28;20116;-58
2023/10/11 01:55:57;;;;;;;41.03;15.50;;;;;;;;;;5081999;28;20491;-58
2023/10/11 01:58:24;;;;;;;43.83;13.40;;;;;;;;;;5088596;28;20051;-59
2023/10/11 02:00:50;;;;;;;41.13;14.88;;;;;;;;;;5069547;28;20445;-58
2023/10/11 02:03:16;;;;;;;44.60;15.65;;;;;;;;;;5071695;28;20148;-58
2023/10/11 02:05:43;;;;;;;40.88;16.05;;;;;;;;;;5085280;28;20153;-58
2023/10/11 02:08:12;;;;;;;42.60;16.13;;;;;;;;;;5093677;28;20424;-58
2023/10/11 02:10:38;;;;;;;49.35;16.30;;;;;;;;;;5085580;28;20109;-58
2023/10/11 02:13:06;;;;;;;35.80;14.13;;;;;;;;;;5085507;28;20117;-58
2023/10/11 02:15:34;;;;;;;41.65;14.48;;;;;;;;;;5074094;28;20121;-58
2023/10/11 02:18:08;;;;;;;35.63;12.75;;;;;;;;;;5087220;28;20093;-59
2023/10/11 02:20:35;;;;;;;41.53;13.90;;;;;;;;;;5083701;28;20105;-59
2023/10/11 02:23:02;;;;;;;42.22;14.75;;;;;;;;;;5079474;28;20064;-58
2023/10/11 02:25:28;;;;;;;37.03;14.25;;;;;;;;;;5075440;28;20044;-59
2023/10/11 02:27:55;;;;;;;34.50;13.60;;;;;;;;;;5074448;28;20041;-59
2023/10/11 02:30:24;;;;;;;40.45;13.63;;;;;;;;;;5077685;28;20487;-58
2023/10/11 02:32:50;;;;;;;40.67;13.48;;;;;;;;;;5080588;28;20077;-58
2023/10/11 02:35:18;;;;;;;45.85;14.98;;;;;;;;;;5084137;28;20051;-59
2023/10/11 02:37:45;;;;;;;38.25;13.43;;;;;;;;;;5085918;28;20138;-58
2023/10/11 02:40:16;;;;;;;38.10;14.02;;;;;;;;;;5080419;28;20036;-59
2023/10/11 02:42:46;;;;;;;44.22;15.25;;;;;;;;;;5093160;28;20103;-59
2023/10/11 02:45:14;;;;;;;35.70;14.20;;;;;;;;;;5083726;28;20045;-58
2023/10/11 02:47:41;;;;;;;30.13;12.55;;;;;;;;;;5086167;28;20407;-58
2023/10/11 02:50:08;;;;;;;36.55;12.77;;;;;;;;;;5085486;28;20040;-58
2023/10/11 02:52:39;;;;;;;43.00;12.88;;;;;;;;;;5091291;28;20097;-58
2023/10/11 02:58:06;;;;;;;44.15;14.00;;;;;;;;;;5055326;28;20449;-58
2023/10/11 03:00:33;;;;;;;40.65;12.10;;;;;;;;;;5080326;28;20131;-59
2023/10/11 03:03:00;;;;;;;44.35;13.60;;;;;;;;;;5073198;28;20063;-58
2023/10/11 03:05:27;;;;;;;41.35;12.00;;;;;;;;;;5082590;28;20074;-58
2023/10/11 03:07:54;;;;;;;32.45;12.32;;;;;;;;;;5084401;28;20043;-58
2023/10/11 03:10:21;;;;;;;34.50;13.23;;;;;;;;;;5078012;28;20045;-58
2023/10/11 03:12:50;;;;;;;36.25;13.10;;;;;;;;;;5087855;28;20480;-58
2023/10/11 03:15:19;;;;;;;40.03;12.77;;;;;;;;;;5083723;28;20471;-58
2023/10/11 03:17:48;;;;;;;29.95;11.77;;;;;;;;;;5063852;28;20048;-58
2023/10/11 03:20:31;;;;;;;34.97;12.52;;;;;;;;;;5072443;28;20516;-58
2023/10/11 03:22:59;;;;;;;33.17;12.93;;;;;;;;;;5070292;28;20530;-58
2023/10/11 03:25:29;;;;;;;33.13;11.07;;;;;;;;;;5079764;28;20044;-59
2023/10/11 03:27:56;;;;;;;31.40;11.68;;;;;;;;;;5075324;28;20047;-58
2023/10/11 03:30:24;;;;;;;36.38;13.10;;;;;;;;;;5079329;28;20037;-58
2023/10/11 03:32:50;;;;;;;36.47;11.48;;;;;;;;;;5081287;28;20067;-58
2023/10/11 03:35:19;;;;;;;30.42;11.93;;;;;;;;;;5085903;28;20404;-58
2023/10/11 03:37:57;;;;;;;31.88;12.57;;;;;;;;;;5076481;28;20798;-58
2023/10/11 03:40:34;;;;;;;39.92;12.45;;;;;;;;;;5079024;28;20041;-59
2023/10/11 03:43:11;;;;;;;31.48;12.02;;;;;;;;;;5079528;28;20439;-58
2023/10/11 03:45:39;;;;;;;43.88;12.85;;;;;;;;;;5082483;28;20047;-58
2023/10/11 03:48:09;;;;;;;37.65;13.02;;;;;;;;;;5089801;28;20043;-58
2023/10/11 03:50:37;;;;;;;33.33;11.82;;;;;;;;;;5083071;28;20066;-58
2023/10/11 03:53:10;;;;;;;34.80;12.20;;;;;;;;;;5073500;28;20075;-59
2023/10/11 03:55:47;;;;;;;34.35;12.15;;;;;;;;;;5083016;28;20480;-58
2023/10/11 03:58:32;;;;;;;38.20;13.23;;;;;;;;;;5088416;28;20122;-58
2023/10/11 04:01:13;;;;;;;34.13;12.10;;;;;;;;;;5085843;28;20048;-59
2023/10/11 04:03:43;;;;;;;31.25;11.27;;;;;;;;;;5056614;28;20041;-58
2023/10/11 04:06:19;;;;;;;35.83;12.25;;;;;;;;;;5072008;28;20469;-59
2023/10/11 04:09:00;;;;;;;38.22;14.10;;;;;;;;;;5073973;28;20535;-58
2023/10/11 04:11:54;;;;;;;34.10;13.32;;;;;;;;;;5079401;28;20045;-58
2023/10/11 04:14:25;;;;;;;33.27;13.50;;;;;;;;;;5057372;28;20045;-58
2023/10/11 04:16:56;;;;;;;32.88;12.63;;;;;;;;;;5067920;28;20060;-58
2023/10/11 04:19:22;;;;;;;32.47;11.23;;;;;;;;;;5067325;28;20048;-58
2023/10/11 04:24:19;;;;;;;39.05;13.23;;;;;;;;;;5070383;28;20037;-58
2023/10/11 04:27:45;;;;;;;36.70;11.73;;;;;;;;;;5068452;28;20052;-58
2023/10/11 04:29:44;;;;;;;33.60;11.95;;;;;;;;;;5057313;28;20737;-59
2023/10/11 04:32:14;;;;;;;37.63;11.38;;;;;;;;;;5069328;28;20068;-58
2023/10/11 04:34:48;;;;;;;34.45;12.00;;;;;;;;;;5069667;28;20481;-58
2023/10/11 04:37:44;;;;;;;45.78;12.30;;;;;;;;;;5068027;28;20118;-58
2023/10/11 04:40:23;;;;;;;35.05;12.57;;;;;;;;;;5058180;28;20067;-59
2023/10/11 04:43:04;;;;;;;39.17;13.70;;;;;;;;;;5066676;28;20372;-58
2023/10/11 04:45:44;;;;;;;43.00;13.00;;;;;;;;;;5069079;28;20052;-58
2023/10/11 04:48:14;;;;;;;36.13;12.93;;;;;;;;;;5068866;28;20045;-59
2023/10/11 04:50:44;;;;;;;33.35;12.23;;;;;;;;;;5070552;28;20063;-58
2023/10/11 04:53:17;;;;;;;34.83;12.35;;;;;;;;;;5060614;28;20123;-58
2023/10/11 04:55:46;;;;;;;35.22;12.38;;;;;;;;;;5067296;28;20430;-58
2023/10/11 04:58:21;;;;;;;33.92;12.38;;;;;;;;;;5070311;28;20048;-58
2023/10/11 05:00:49;;;;;;;33.47;13.40;;;;;;;;;;5068846;28;20049;-58
2023/10/11 05:03:18;;;;;;;36.45;13.40;;;;;;;;;;5069313;28;20552;-58
2023/10/11 05:05:58;;;;;;;36.38;12.07;;;;;;;;;;5067400;28;20563;-58
2023/10/11 05:08:51;;;;;;;31.20;12.68;;;;;;;;;;5068167;28;20085;-58
2023/10/11 05:11:31;;;;;;;37.25;13.45;;;;;;;;;;5068203;28;21142;-58
2023/10/11 05:14:10;;;;;;;35.28;12.98;;;;;;;;;;5064098;28;20044;-58
2023/10/11 05:16:38;;;;;;;29.75;12.43;;;;;;;;;;5066942;28;20501;-59
2023/10/11 05:19:06;;;;;;;34.38;13.70;;;;;;;;;;5074022;28;20040;-59
2023/10/11 05:21:38;;;;;;;34.67;14.07;;;;;;;;;;5072054;28;20148;-58
2023/10/11 05:24:29;;;;;;;41.38;13.45;;;;;;;;;;5070227;28;20134;-58
2023/10/11 05:27:11;;;;;;;34.70;13.20;;;;;;;;;;5072286;28;20408;-59
2023/10/11 05:30:05;;;;;;;38.30;12.55;;;;;;;;;;5067308;28;20112;-58
2023/10/11 05:32:27;;;;;;;32.22;13.23;;;;;;;;;;5072396;28;20135;-58
2023/10/11 05:51:29;;;;;;;33.22;13.65;;;;;;;;;;5073010;28;20044;-59
2023/10/11 05:53:59;;;;;;;40.08;15.00;;;;;;;;;;5071609;28;20345;-58
2023/10/11 05:56:25;;;;;;;36.72;13.82;;;;;;;;;;5064083;28;20512;-59
2023/10/11 05:58:53;;;;;;;31.77;12.90;;;;;;;;;;5065499;28;20048;-58
2023/10/11 06:01:21;;;;;;;34.83;13.73;;;;;;;;;;5061966;28;20094;-58
2023/10/11 06:04:03;;;;;;;35.47;13.40;;;;;;;;;;5066669;28;20063;-58
2023/10/11 06:06:45;;;;;;;32.38;14.13;;;;;;;;;;5068092;28;20041;-58
2023/10/11 06:09:17;;;;;;;36.88;13.00;;;;;;;;;;5064078;28;20416;-58
2023/10/11 06:11:49;;;;;;;35.17;14.02;;;;;;;;;;5062309;28;20497;-59
2023/10/11 06:14:19;;;;;;;37.28;14.05;;;;;;;;;;5059972;28;20186;-58
2023/10/11 06:16:49;;;;;;;29.27;12.40;;;;;;;;;;5065814;28;20194;-58
2023/10/11 06:19:19;;;;;;;34.78;12.38;;;;;;;;;;5063213;28;20097;-60
2023/10/11 06:21:58;;;;;;;29.23;12.77;;;;;;;;;;5056991;28;20098;-58
2023/10/11 06:24:34;;;;;;;35.33;12.45;;;;;;;;;;5066192;28;20051;-59
2023/10/11 06:29:45;;;;;;;24.25;11.93;;;;;;;;;;5067741;28;20053;-59
2023/10/11 06:32:12;;;;;;;29.70;11.65;;;;;;;;;;5064619;28;20036;-59
2023/10/11 06:34:40;;;;;;;30.17;12.10;;;;;;;;;;5066646;28;20055;-59
2023/10/11 06:37:09;;;;;;;31.75;13.20;;;;;;;;;;5060097;28;20482;-59
2023/10/11 06:42:21;;;;;;;33.80;12.63;;;;;;;;;;5062561;28;20047;-59
2023/10/11 06:44:57;;;;;;;26.35;13.02;;;;;;;;;;5060769;28;20310;-60
2023/10/11 06:47:24;;;;;;;30.75;12.15;;;;;;;;;;5059317;28;20442;-59
2023/10/11 06:49:54;;;;;;;26.25;11.35;;;;;;;;;;5061905;28;20044;-59
2023/10/11 06:52:54;;;;;;;33.10;12.88;;;;;;;;;;5062699;28;20443;-59
2023/10/11 06:55:18;;;;;;;27.67;11.43;;;;;;;;;;5062169;28;20129;-60
2023/10/11 06:57:50;;;;;;;30.00;12.75;;;;;;;;;;5062100;28;20052;-59
2023/10/11 07:00:36;;;;;;;31.35;12.27;;;;;;;;;;5062882;28;20095;-59
2023/10/11 07:03:27;;;;;;;29.95;11.40;;;;;;;;;;5063897;28;20505;-60
2023/10/11 07:05:59;;;;;;;29.92;12.10;;;;;;;;;;5062258;28;20139;-59
2023/10/11 07:08:32;;;;;;;25.08;10.85;;;;;;;;;;5063569;28;20049;-59
2023/10/11 07:11:17;;;;;;;29.10;12.02;;;;;;;;;;5065408;28;20044;-59
2023/10/11 07:14:00;;;;;;;21.38;10.25;;;;;;;;;;5062939;28;20044;-59
2023/10/11 07:16:27;;;;;;;22.63;10.02;;;;;;;;;;5063288;28;20113;-59
2023/10/11 07:18:54;;;;;;;28.35;10.07;;;;;;;;;;5062164;28;20052;-59
2023/10/11 07:21:40;;;;;;;28.58;10.80;;;;;;;;;;5060901;28;20622;-59
2023/10/11 07:24:19;;;;;;;25.95;10.95;;;;;;;;;;5063286;28;20055;-59
2023/10/11 07:29:20;;;;;;;22.50;9.55;;;;;;;;;;5066282;28;20131;-59
2023/10/11 07:31:49;;;;;;;20.40;9.27;;;;;;;;;;5069992;28;20387;-59
2023/10/11 07:34:20;;;;;;;18.23;8.25;;;;;;;;;;5071588;28;20041;-59
2023/10/11 07:36:49;;;;;;;23.70;9.68;;;;;;;;;;5070716;28;20101;-59
2023/10/11 07:39:19;;;;;;;21.10;8.73;;;;;;;;;;5068740;28;20033;-59
2023/10/11 07:41:48;;;;;;;23.20;8.35;;;;;;;;;;5071033;28;20056;-59
2023/10/11 07:44:14;;;;;;;22.00;8.65;;;;;;;;;;5071720;28;20054;-59
2023/10/11 07:46:43;;;;;;;20.73;9.02;;;;;;;;;;5071225;28;20051;-59
2023/10/11 07:49:22;;;;;;;18.75;8.57;;;;;;;;;;5067268;28;20038;-59
2023/10/11 07:51:52;;;;;;;24.95;9.10;;;;;;;;;;5067390;28;20055;-59
2023/10/11 07:54:24;;;;;;;20.20;8.07;;;;;;;;;;5066815;28;20399;-58
2023/10/11 07:56:57;;;;;;;16.55;7.45;;;;;;;;;;5069387;28;20360;-58
2023/10/11 07:59:26;;;;;;;18.75;7.35;;;;;;;;;;5071258;28;20086;-58
2023/10/11 08:01:54;;;;;;;17.63;8.00;;;;;;;;;;5068889;28;20097;-58
2023/10/11 08:04:47;;;;;;;19.08;8.95;;;;;;;;;;5070771;28;20119;-58
2023/10/11 08:07:12;;;;;;;26.63;10.30;;;;;;;;;;5070597;28;20052;-59
2023/10/11 08:09:52;;;;;;;26.58;10.40;;;;;;;;;;5082352;28;20175;-59
2023/10/11 08:12:21;;;;;;;23.35;10.10;;;;;;;;;;5075781;28;20434;-60
2023/10/11 08:14:47;;;;;;;20.23;10.52;;;;;;;;;;5090541;28;20040;-60
2023/10/11 08:17:13;;;;;;;23.05;11.82;;;;;;;;;;5068965;28;20044;-65
2023/10/11 08:19:44;;;;;;;22.48;11.10;;;;;;;;;;5084814;28;20040;-59
2023/10/11 08:22:14;;;;;;;19.38;10.77;;;;;;;;;;5078523;28;20092;-59
2023/10/11 08:24:56;;;;;;;24.23;10.70;;;;;;;;;;5081299;28;21405;-59
2023/10/11 08:27:27;;;;;;;28.10;10.38;;;;;;;;;;5078908;28;20047;-59
2023/10/11 08:30:15;;;;;;;22.90;11.20;;;;;;;;;;5076629;28;20056;-59
2023/10/11 08:32:47;;;;;;;22.42;9.20;;;;;;;;;;5085238;28;20052;-59
2023/10/11 08:35:16;;;;;;;19.23;8.60;;;;;;;;;;5071915;28;20037;-67
2023/10/11 08:37:44;;;;;;;17.67;8.40;;;;;;;;;;5078171;28;20106;-59
2023/10/11 08:40:22;;;;;;;15.95;7.93;;;;;;;;;;5084761;28;20098;-60
2023/10/11 08:42:49;;;;;;;18.02;8.70;;;;;;;;;;5084205;28;20127;-60
2023/10/11 08:45:20;;;;;;;17.45;8.40;;;;;;;;;;5072380;28;20066;-59
2023/10/11 08:47:46;;;;;;;17.23;8.20;;;;;;;;;;5075724;28;20044;-59
2023/10/11 08:50:17;;;;;;;13.27;7.07;;;;;;;;;;5072622;28;20037;-61
2023/10/11 08:52:44;;;;;;;17.13;7.85;;;;;;;;;;5070475;28;20048;-60
2023/10/11 08:55:14;;;;;;;14.60;7.68;;;;;;;;;;5070709;28;20037;-58
2023/10/11 08:57:40;;;;;;;15.63;7.63;;;;;;;;;;5069435;28;20052;-59
2023/10/11 09:00:29;;;;;;;14.73;7.32;;;;;;;;;;5070982;28;20090;-59
2023/10/11 09:02:56;;;;;;;13.32;6.78;;;;;;;;;;5064085;28;20144;-59
2023/10/11 09:05:32;;;;;;;15.18;7.78;;;;;;;;;;5079305;28;20037;-59
2023/10/11 09:08:04;;;;;;;15.13;6.88;;;;;;;;;;5087472;28;20056;-59
2023/10/11 09:10:33;;;;;;;13.85;6.97;;;;;;;;;;5090199;28;20052;-59
2023/10/11 09:13:02;;;;;;;19.05;7.75;;;;;;;;;;5079676;28;20041;-59
2023/10/11 09:15:40;;;;;;;14.68;7.50;;;;;;;;;;5072023;28;20373;-59
2023/10/11 09:18:13;;;;;;;17.98;7.38;;;;;;;;;;5090377;28;20048;-60
2023/10/11 09:20:43;;;;;;;15.88;7.22;;;;;;;;;;5086232;28;20036;-59
2023/10/11 09:23:11;;;;;;;16.85;8.25;;;;;;;;;;5087260;28;20038;-59
2023/10/11 09:26:05;;;;;;;13.07;7.38;;;;;;;;;;5065381;28;20037;-60
2023/10/11 09:28:34;;;;;;;18.83;7.65;;;;;;;;;;5061438;28;20052;-59
2023/10/11 09:31:14;;;;;;;18.02;7.28;;;;;;;;;;5070190;28;20498;-60
2023/10/11 09:33:45;;;;;;;13.57;6.50;;;;;;;;;;5081421;28;20471;-59
2023/10/11 09:36:12;;;;;;;20.35;7.50;;;;;;;;;;5070900;28;20143;-59
2023/10/11 09:38:41;;;;;;;12.98;6.45;;;;;;;;;;5067807;28;20334;-59
2023/10/11 09:41:08;;;;;;;16.55;7.13;;;;;;;;;;5074983;28;20090;-60
2023/10/11 09:43:44;;;;;;;13.20;6.15;;;;;;;;;;5077777;28;20036;-59
2023/10/11 09:46:13;;;;;;;12.18;5.93;;;;;;;;;;5083554;28;20482;-59
2023/10/11 09:48:43;;;;;;;14.70;6.38;;;;;;;;;;5069781;28;20046;-60
2023/10/11 09:51:13;;;;;;;23.00;6.50;;;;;;;;;;5069994;28;20040;-59
2023/10/11 09:53:49;;;;;;;17.95;6.72;;;;;;;;;;5076330;28;20043;-59
2023/10/11 09:56:40;;;;;;;14.70;6.70;;;;;;;;;;5071280;28;20399;-59
2023/10/11 09:59:19;;;;;;;15.57;7.03;;;;;;;;;;5063748;28;20113;-59
2023/10/11 10:02:04;;;;;;;12.43;7.05;;;;;;;;;;5086483;28;20397;-59
2023/10/11 10:04:54;;;;;;;17.40;6.22;;;;;;;;;;5065145;28;20499;-59
2023/10/11 10:07:33;;;;;;;18.23;6.55;;;;;;;;;;5077429;28;20167;-59
2023/10/11 10:10:00;;;;;;;20.42;7.88;;;;;;;;;;5077987;28;20071;-59
2023/10/11 10:12:31;;;;;;;20.50;7.00;;;;;;;;;;5089555;28;20096;-59
2023/10/11 10:15:04;;;;;;;14.13;6.20;;;;;;;;;;5093583;28;20086;-59
2023/10/11 10:17:30;;;;;;;13.67;6.30;;;;;;;;;;5073368;28;20052;-59
2023/10/11 10:20:00;;;;;;;16.00;7.10;;;;;;;;;;5078832;28;20048;-59
2023/10/11 10:22:33;;;;;;;17.20;6.25;;;;;;;;;;5090094;28;20048;-59
2023/10/11 10:25:18;;;;;;;12.18;5.72;;;;;;;;;;5084863;28;20098;-59
2023/10/11 10:27:52;;;;;;;16.77;5.97;;;;;;;;;;5071400;28;20532;-60
2023/10/11 10:30:21;;;;;;;15.60;5.85;;;;;;;;;;5067121;28;20128;-59
2023/10/11 10:33:06;;;;;;;15.05;6.35;;;;;;;;;;5070377;28;20040;-59
2023/10/11 10:35:36;;;;;;;15.32;5.85;;;;;;;;;;5070596;28;20476;-59
2023/10/11 10:38:09;;;;;;;15.13;5.45;;;;;;;;;;5072381;28;20040;-59
2023/10/11 10:40:37;;;;;;;11.55;5.18;;;;;;;;;;5070520;28;20531;-59
2023/10/11 10:43:27;;;;;;;16.05;5.70;;;;;;;;;;5069808;28;20123;-59
2023/10/11 10:45:59;;;;;;;11.60;4.80;;;;;;;;;;5071670;28;20045;-59
2023/10/11 10:48:30;;;;;;;16.80;4.38;;;;;;;;;;5072585;28;20429;-59
2023/10/11 10:51:07;;;;;;;16.23;4.63;;;;;;;;;;5069910;28;20052;-59
2023/10/11 10:54:04;;;;;;;13.82;5.15;;;;;;;;;;5069109;28;20097;-59
2023/10/11 10:56:30;;;;;;;14.80;5.15;;;;;;;;;;5069391;28;20037;-59
2023/10/11 10:59:12;;;;;;;15.93;5.85;;;;;;;;;;5070854;28;20121;-59
2023/10/11 11:01:46;;;;;;;12.52;4.55;;;;;;;;;;5069290;28;20052;-59
2023/10/11 11:04:14;;;;;;;13.05;4.18;;;;;;;;;;5072363;28;20045;-59
2023/10/11 11:06:40;;;;;;;13.50;4.25;;;;;;;;;;5070632;28;20454;-59
2023/10/11 11:09:13;;;;;;;10.65;3.80;;;;;;;;;;5091465;28;20036;-59
2023/10/11 11:11:40;;;;;;;19.98;4.35;;;;;;;;;;5082451;28;20056;-59
2023/10/11 11:14:10;;;;;;;16.55;5.65;;;;;;;;;;5074820;28;20353;-59
2023/10/11 11:16:41;;;;;;;14.00;4.75;;;;;;;;;;5083980;28;20106;-59
2023/10/11 11:19:25;;;;;;;14.05;4.47;;;;;;;;;;5072386;28;20040;-59
2023/10/11 11:22:06;;;;;;;13.07;4.28;;;;;;;;;;5073958;28;20048;-59
2023/10/11 11:24:35;;;;;;;15.15;5.13;;;;;;;;;;5064070;28;20044;-59
2023/10/11 11:27:06;;;;;;;14.07;4.07;;;;;;;;;;5083793;28;20067;-60
2023/10/11 11:29:33;;;;;;;14.50;5.35;;;;;;;;;;5077665;28;20193;-59
2023/10/11 11:32:00;;;;;;;13.13;4.20;;;;;;;;;;5081418;28;20407;-59
2023/10/11 11:34:37;;;;;;;12.85;4.07;;;;;;;;;;5076152;28;20472;-59
2023/10/11 11:37:06;;;;;;;11.32;4.18;;;;;;;;;;5084902;28;20044;-59
2023/10/11 11:42:07;;;;;;;15.68;4.47;;;;;;;;;;5081685;28;20503;-59
2023/10/11 11:44:33;;;;;;;11.45;4.22;;;;;;;;;;5088378;28;20052;-59
2023/10/11 11:47:05;;;;;;;15.05;4.70;;;;;;;;;;5075218;28;20242;-59
2023/10/11 11:49:33;;;;;;;13.43;4.82;;;;;;;;;;5072802;28;20054;-59
2023/10/11 11:52:00;;;;;;;11.23;4.28;;;;;;;;;;5077375;28;20418;-59
2023/10/11 11:54:28;;;;;;;13.02;5.18;;;;;;;;;;5085711;28;20044;-59
2023/10/11 11:56:55;;;;;;;10.73;4.22;;;;;;;;;;5085465;28;20350;-59
2023/10/11 11:59:22;;;;;;;13.32;4.65;;;;;;;;;;5080441;28;20031;-59
2023/10/11 12:02:01;;;;;;;12.80;5.13;;;;;;;;;;5070326;28;20083;-59
2023/10/11 12:04:32;;;;;;;13.65;4.38;;;;;;;;;;5072216;28;20127;-59
2023/10/11 12:07:02;;;;;;;9.82;4.40;;;;;;;;;;5078098;28;20059;-59
2023/10/11 12:09:33;;;;;;;11.73;3.63;;;;;;;;;;5088088;28;20119;-59
2023/10/11 12:12:03;;;;;;;11.55;4.07;;;;;;;;;;5083237;28;20052;-59
2023/10/11 12:14:30;;;;;;;13.65;4.40;;;;;;;;;;5077632;28;20059;-59
2023/10/11 12:16:56;;;;;;;11.88;4.68;;;;;;;;;;5076786;28;20034;-59
2023/10/11 12:19:23;;;;;;;11.68;3.40;;;;;;;;;;5090546;28;20553;-59
2023/10/11 12:21:57;;;;;;;11.88;4.28;;;;;;;;;;5085095;28;20098;-59
2023/10/11 12:24:24;;;;;;;18.63;5.35;;;;;;;;;;5088004;28;20391;-59
2023/10/11 12:26:51;;;;;;;14.05;4.60;;;;;;;;;;5085382;28;20045;-59
2023/10/11 12:29:21;;;;;;;14.32;4.95;;;;;;;;;;5087887;28;20048;-60
2023/10/11 12:31:47;;;;;;;14.65;4.55;;;;;;;;;;5074838;28;20041;-59
2023/10/11 12:34:16;;;;;;;13.75;4.82;;;;;;;;;;5086587;28;20156;-59
2023/10/11 12:36:42;;;;;;;17.85;6.07;;;;;;;;;;5087560;28;20392;-59
2023/10/11 12:39:20;;;;;;;13.68;4.28;;;;;;;;;;5084559;28;20503;-59
2023/10/11 12:41:50;;;;;;;12.50;4.57;;;;;;;;;;5072860;28;20127;-59
2023/10/11 12:44:17;;;;;;;12.25;4.15;;;;;;;;;;5079275;28;20466;-59
2023/10/11 12:46:43;;;;;;;12.63;4.78;;;;;;;;;;5073694;28;20499;-59
2023/10/11 12:49:13;;;;;;;14.38;4.15;;;;;;;;;;5081837;28;20048;-59
2023/10/11 12:51:42;;;;;;;21.25;5.35;;;;;;;;;;5087496;28;20040;-59
2023/10/11 12:54:10;;;;;;;16.42;4.63;;;;;;;;;;5075529;28;20114;-59
2023/10/11 12:56:37;;;;;;;18.10;4.75;;;;;;;;;;5086291;28;20047;-59
2023/10/11 12:59:10;;;;;;;14.27;5.30;;;;;;;;;;5080333;28;20054;-60
2023/10/11 13:01:38;;;;;;;14.32;4.88;;;;;;;;;;5088703;28;20043;-59
2023/10/11 13:04:17;;;;;;;15.60;4.80;;;;;;;;;;5079918;28;20044;-59
2023/10/11 13:06:49;;;;;;;14.25;4.35;;;;;;;;;;5073304;28;20127;-59
2023/10/11 13:09:16;;;;;;;14.35;4.47;;;;;;;;;;5044544;28;20040;-59
2023/10/11 13:11:46;;;;;;;16.63;4.93;;;;;;;;;;5088534;28;20088;-59
2023/10/11 13:14:18;;;;;;;12.02;4.10;;;;;;;;;;5089057;28;20044;-59
2023/10/11 13:16:51;;;;;;;13.73;4.75;;;;;;;;;;5087531;28;20122;-60
2023/10/11 13:19:18;;;;;;;17.08;4.22;;;;;;;;;;5083758;28;20060;-60
2023/10/11 13:21:47;;;;;;;13.77;4.78;;;;;;;;;;5079152;28;20051;-59
2023/10/11 13:24:16;;;;;;;19.27;5.50;;;;;;;;;;5087651;28;20036;-59
2023/10/11 13:26:46;;;;;;;12.88;4.10;;;;;;;;;;5066294;28;20048;-59
2023/10/11 13:29:19;;;;;;;15.95;5.15;;;;;;;;;;5086524;28;20058;-59
2023/10/11 13:31:50;;;;;;;13.90;4.50;;;;;;;;;;5088645;28;20051;-59
2023/10/11 13:34:17;;;;;;;16.42;4.97;;;;;;;;;;5087400;28;20051;-60
2023/10/11 13:36:43;;;;;;;18.25;4.85;;;;;;;;;;5079092;28;20057;-60
2023/10/11 13:39:28;;;;;;;16.33;4.65;;;;;;;;;;5087667;28;20139;-59
2023/10/11 13:41:55;;;;;;;13.27;4.88;;;;;;;;;;5090238;28;20543;-69
2023/10/11 13:44:26;;;;;;;22.00;5.30;;;;;;;;;;5072845;28;20492;-59
2023/10/11 13:46:58;;;;;;;17.10;5.88;;;;;;;;;;5089104;28;20044;-59
2023/10/11 13:49:25;;;;;;;16.88;5.85;;;;;;;;;;5083134;28;20492;-60
2023/10/11 13:51:58;;;;;;;13.50;4.95;;;;;;;;;;5088694;28;20048;-59
2023/10/11 13:54:46;;;;;;;14.45;5.35;;;;;;;;;;5094265;28;20052;-59
2023/10/11 13:57:16;;;;;;;17.10;4.63;;;;;;;;;;5086468;28;20174;-59
2023/10/11 13:59:45;;;;;;;17.73;4.72;;;;;;;;;;5083411;28;20500;-59
2023/10/11 14:04:49;;;;;;;12.27;4.70;;;;;;;;;;5082011;28;20044;-59
2023/10/11 14:07:37;;;;;;;12.75;4.32;;;;;;;;;;5085008;28;20074;-59
2023/10/11 14:10:13;;;;;;;16.30;4.35;;;;;;;;;;5092971;28;20048;-59
2023/10/11 14:12:40;;;;;;;17.98;5.03;;;;;;;;;;5077880;28;20461;-59
2023/10/11 14:15:17;;;;;;;13.77;4.82;;;;;;;;;;5093955;28;20132;-59
2023/10/11 14:17:46;;;;;;;12.43;4.30;;;;;;;;;;5076297;28;20164;-59
2023/10/11 14:20:19;;;;;;;15.68;5.07;;;;;;;;;;5091940;28;20119;-59
2023/10/11 14:22:49;;;;;;;16.35;4.50;;;;;;;;;;5081903;28;20133;-59
2023/10/11 14:25:18;;;;;;;25.45;5.95;;;;;;;;;;5083369;28;20167;-59
2023/10/11 14:27:45;;;;;;;18.10;4.85;;;;;;;;;;5076075;28;20055;-60
2023/10/11 14:30:15;;;;;;;18.95;5.30;;;;;;;;;;5073914;28;20120;-59
2023/10/11 14:32:45;;;;;;;20.52;5.05;;;;;;;;;;5070539;28;20857;-59
2023/10/11 14:35:12;;;;;;;15.60;4.13;;;;;;;;;;5071193;28;20353;-59
2023/10/11 14:37:42;;;;;;;16.45;4.80;;;;;;;;;;5078001;28;20036;-59
2023/10/11 14:40:14;;;;;;;22.35;4.95;;;;;;;;;;5078893;28;20045;-59
2023/10/11 14:42:48;;;;;;;16.97;4.50;;;;;;;;;;5083663;28;20048;-60
2023/10/11 14:45:16;;;;;;;14.77;3.88;;;;;;;;;;5083291;28;20442;-59
2023/10/11 14:47:46;;;;;;;16.90;4.90;;;;;;;;;;5070430;28;20093;-59
2023/10/11 14:50:16;;;;;;;14.90;4.90;;;;;;;;;;5073942;28;20129;-59
2023/10/11 14:52:44;;;;;;;13.50;4.20;;;;;;;;;;5067136;28;20132;-59
2023/10/11 14:55:17;;;;;;;20.10;5.00;;;;;;;;;;5038149;28;20701;-59
2023/10/11 14:57:53;;;;;;;23.27;4.50;;;;;;;;;;5069894;28;20182;-59
2023/10/11 15:00:24;;;;;;;16.38;4.70;;;;;;;;;;5064334;28;20032;-60
2023/10/11 15:02:51;;;;;;;11.38;4.00;;;;;;;;;;5060412;28;20099;-60
2023/10/11 15:05:18;;;;;;;15.75;4.68;;;;;;;;;;5060928;28;20036;-58
2023/10/11 15:07:48;;;;;;;14.18;4.32;;;;;;;;;;5061034;28;20082;-58
2023/10/11 15:10:15;;;;;;;16.98;5.38;;;;;;;;;;5081241;28;20039;-58
2023/10/11 15:12:42;;;;;;;15.05;4.85;;;;;;;;;;5078343;28;20044;-58
2023/10/11 15:15:08;;;;;;;14.90;4.68;;;;;;;;;;5092409;28;20514;-58
2023/10/11 15:17:34;;;;;;;17.38;5.22;;;;;;;;;;5080761;28;20044;-58
2023/10/11 15:20:00;;;;;;;18.83;5.55;;;;;;;;;;5092073;28;20044;-58
2023/10/11 15:22:27;;;;;;;19.02;5.63;;;;;;;;;;5074802;28;20416;-58
2023/10/11 15:24:54;;;;;;;22.40;6.68;;;;;;;;;;5067254;28;20052;-58
2023/10/11 15:27:20;;;;;;;21.48;6.22;;;;;;;;;;5065198;28;20488;-58